Time;durP1;ratioP1;P1;durP2;ratioP2;P2;SDS_P1;SDS_P2;PMS_P1;PMS_P2;Temp;Humidity;BMP_temperature;BMP_pressure;BME280_temperature;BME280_humidity;BME280_pressure;Samples;Min_cycle;Max_cycle;Signal;HPM_P1;HPM_P2
2021/10/07 00:01:27;;;;;;;19.88;15.02;;;;;;;11.20;100.00;100845.56;5055187;28;20037;-69
2021/10/07 00:03:54;;;;;;;24.27;15.45;;;;;;;11.17;100.00;100849.25;5045409;28;20051;-69
2021/10/07 00:06:21;;;;;;;23.92;15.88;;;;;;;11.23;100.00;100858.78;5036216;28;20073;-70
2021/10/07 00:08:48;;;;;;;20.13;14.95;;;;;;;11.21;100.00;100858.88;5034965;28;20091;-71
2021/10/07 00:11:16;;;;;;;20.98;15.20;;;;;;;11.18;100.00;100858.16;5036294;28;20117;-72
2021/10/07 00:13:44;;;;;;;19.90;15.45;;;;;;;11.18;100.00;100858.16;5034898;28;20049;-72
2021/10/07 00:16:11;;;;;;;23.13;15.70;;;;;;;11.17;100.00;100851.94;5036384;28;20048;-71
2021/10/07 00:18:40;;;;;;;21.38;15.98;;;;;;;11.22;100.00;100860.59;5035941;28;20132;-71
2021/10/07 00:21:08;;;;;;;21.88;15.73;;;;;;;11.19;100.00;100854.53;5035974;28;20438;-70
2021/10/07 00:23:42;;;;;;;26.15;15.50;;;;;;;11.28;100.00;100862.09;5035873;28;20041;-70
2021/10/07 00:26:09;;;;;;;20.85;15.95;;;;;;;11.25;100.00;100860.44;5036201;28;20053;-71
2021/10/07 00:28:35;;;;;;;21.08;16.08;;;;;;;11.20;100.00;100862.47;5035854;28;20482;-73
2021/10/07 00:31:04;;;;;;;26.40;17.42;;;;;;;11.19;100.00;100858.09;5051352;28;20053;-72
2021/10/07 00:33:44;;;;;;;23.15;17.00;;;;;;;11.24;100.00;100864.03;5034905;28;20037;-73
2021/10/07 00:36:16;;;;;;;21.63;16.45;;;;;;;11.17;100.00;100859.09;5035695;28;20366;-69
2021/10/07 00:41:28;;;;;;;31.42;16.92;;;;;;;11.20;100.00;100872.28;5035928;28;20390;-70
2021/10/07 00:43:55;;;;;;;25.20;16.15;;;;;;;11.21;100.00;100869.56;5034476;28;20049;-71
2021/10/07 00:46:21;;;;;;;29.17;16.63;;;;;;;11.18;100.00;100882.19;5035631;28;20354;-72
2021/10/07 00:48:48;;;;;;;24.83;15.95;;;;;;;11.18;100.00;100877.75;5050914;28;20133;-70
2021/10/07 00:51:15;;;;;;;21.90;15.90;;;;;;;11.12;100.00;100870.03;5035412;28;20045;-71
2021/10/07 00:53:42;;;;;;;25.33;16.75;;;;;;;11.11;100.00;100879.84;5034712;28;20473;-70
2021/10/07 00:56:09;;;;;;;25.15;16.88;;;;;;;11.06;100.00;100881.03;5034491;28;20111;-71
2021/10/07 00:58:35;;;;;;;23.52;16.42;;;;;;;11.01;100.00;100878.63;5035291;28;20045;-69
2021/10/07 01:01:02;;;;;;;26.17;16.63;;;;;;;10.99;100.00;100881.34;5034324;28;20045;-68
2021/10/07 01:03:33;;;;;;;21.98;16.63;;;;;;;10.95;100.00;100877.09;5042499;28;20127;-72
2021/10/07 01:06:00;;;;;;;28.20;17.58;;;;;;;10.94;100.00;100878.03;5055334;28;20045;-71
2021/10/07 01:08:28;;;;;;;27.02;17.15;;;;;;;10.93;100.00;100880.78;5055108;28;20374;-73
2021/10/07 01:10:55;;;;;;;23.40;16.77;;;;;;;10.88;100.00;100867.69;5055143;28;20053;-70
2021/10/07 01:13:22;;;;;;;26.35;16.65;;;;;;;10.90;100.00;100881.81;5054934;28;20052;-72
2021/10/07 01:15:48;;;;;;;26.02;17.48;;;;;;;10.88;100.00;100880.19;5055203;28;20041;-73
2021/10/07 01:18:15;;;;;;;28.58;18.20;;;;;;;10.89;100.00;100882.75;5054855;28;20037;-72
2021/10/07 01:20:42;;;;;;;29.73;18.17;;;;;;;10.90;100.00;100881.81;5055099;28;20064;-71
2021/10/07 01:23:09;;;;;;;24.13;16.00;;;;;;;10.99;100.00;100886.69;5053784;28;20053;-69
2021/10/07 01:25:36;;;;;;;28.40;17.52;;;;;;;10.99;100.00;100878.69;5053884;28;20037;-71
2021/10/07 01:28:03;;;;;;;26.55;16.08;;;;;;;11.10;100.00;100887.94;5054958;28;20381;-72
2021/10/07 01:30:30;;;;;;;23.63;16.08;;;;;;;11.14;100.00;100889.53;5054872;28;20310;-70
2021/10/07 01:32:57;;;;;;;25.33;16.95;;;;;;;11.12;100.00;100886.06;5037353;28;20098;-72
2021/10/07 01:35:24;;;;;;;29.70;16.85;;;;;;;11.13;100.00;100887.78;5053648;28;20109;-72
2021/10/07 01:37:51;;;;;;;24.80;16.70;;;;;;;11.16;100.00;100900.13;5053851;28;20057;-72
2021/10/07 01:40:19;;;;;;;25.40;15.80;;;;;;;11.19;100.00;100897.28;5054690;28;20076;-70
2021/10/07 01:42:45;;;;;;;25.88;16.10;;;;;;;11.24;100.00;100895.25;5054867;28;20052;-72
2021/10/07 01:45:17;;;;;;;;;;;;;;;11.26;100.00;100898.69;5054155;28;20348;-69
2021/10/07 01:47:44;;;;;;;22.20;15.20;;;;;;;11.25;100.00;100907.66;5054844;28;19935;-68
2021/10/07 01:50:12;;;;;;;21.75;15.15;;;;;;;11.25;100.00;100905.00;5054568;28;20196;-68
2021/10/07 01:52:39;;;;;;;25.45;15.38;;;;;;;11.24;100.00;100905.94;5036999;28;20072;-71
2021/10/07 01:55:09;;;;;;;25.33;15.32;;;;;;;11.26;100.00;100906.72;5054787;28;20045;-72
2021/10/07 01:57:36;;;;;;;29.20;16.92;;;;;;;11.30;100.00;100899.41;5054796;28;20492;-69
2021/10/07 02:00:08;;;;;;;25.40;17.38;;;;;;;11.31;100.00;100901.13;5054687;28;20041;-70
2021/10/07 02:02:39;;;;;;;23.67;16.33;;;;;;;11.34;100.00;100906.31;5054489;28;20380;-70
2021/10/07 02:05:07;;;;;;;25.35;16.40;;;;;;;11.34;100.00;100900.97;5054543;28;20425;-69
2021/10/07 02:07:34;;;;;;;33.22;17.35;;;;;;;11.37;100.00;100895.47;5058633;28;20069;-70
2021/10/07 02:10:04;;;;;;;26.73;17.08;;;;;;;11.35;100.00;100908.03;5058411;28;20052;-70
2021/10/07 02:12:31;;;;;;;30.92;17.10;;;;;;;11.33;100.00;100901.94;5057247;28;20049;-69
2021/10/07 02:14:58;;;;;;;25.58;17.13;;;;;;;11.37;100.00;100901.69;5057036;28;20045;-72
2021/10/07 02:17:24;;;;;;;25.08;17.98;;;;;;;11.38;100.00;100908.75;5058211;28;20041;-71
2021/10/07 02:19:51;;;;;;;32.35;17.67;;;;;;;11.38;100.00;100898.06;5058059;28;20326;-72
2021/10/07 02:22:18;;;;;;;32.65;18.77;;;;;;;11.39;100.00;100898.94;5058178;28;20079;-68
2021/10/07 02:24:45;;;;;;;35.00;19.13;;;;;;;11.40;100.00;100903.34;5047262;28;20044;-70
2021/10/07 02:27:15;;;;;;;34.40;19.48;;;;;;;11.40;100.00;100901.50;5036974;28;20187;-70
2021/10/07 02:29:43;;;;;;;28.35;18.55;;;;;;;11.43;100.00;100903.16;5037923;28;20033;-70
2021/10/07 02:32:10;;;;;;;33.08;18.50;;;;;;;11.50;100.00;100907.22;5037054;28;20041;-71
2021/10/07 02:34:37;;;;;;;33.45;19.40;;;;;;;11.48;100.00;100909.13;5037032;28;20516;-69
2021/10/07 02:37:04;;;;;;;33.10;18.13;;;;;;;11.49;100.00;100908.19;5037990;28;20342;-69
2021/10/07 02:39:31;;;;;;;29.38;18.90;;;;;;;11.48;100.00;100913.59;5036720;28;20140;-70
2021/10/07 02:41:58;;;;;;;33.10;19.33;;;;;;;11.46;100.00;100911.03;5036794;28;20037;-70
2021/10/07 02:44:24;;;;;;;34.13;20.35;;;;;;;11.46;100.00;100908.34;5020215;28;20390;-70
2021/10/07 02:46:51;;;;;;;35.42;20.48;;;;;;;11.45;100.00;100905.75;5037802;28;20049;-71
2021/10/07 02:49:18;;;;;;;33.50;20.17;;;;;;;11.44;100.00;100917.41;5037525;28;20100;-71
2021/10/07 02:51:45;;;;;;;33.80;20.60;;;;;;;11.41;100.00;100919.31;5037473;28;20053;-71
2021/10/07 02:54:12;;;;;;;36.80;20.40;;;;;;;11.39;100.00;100915.81;5036482;28;20037;-70
2021/10/07 02:56:39;;;;;;;32.97;20.50;;;;;;;11.36;100.00;100918.66;5037464;28;20060;-69
2021/10/07 02:59:06;;;;;;;36.03;19.67;;;;;;;11.42;100.00;100922.81;5036492;28;20048;-72
2021/10/07 03:01:33;;;;;;;30.33;18.80;;;;;;;11.43;100.00;100926.38;5036234;28;20068;-70
2021/10/07 03:04:00;;;;;;;33.72;19.15;;;;;;;11.39;100.00;100925.66;5048716;28;20033;-70
2021/10/07 03:06:27;;;;;;;32.25;18.83;;;;;;;11.34;100.00;100933.06;5057247;28;20348;-70
2021/10/07 03:08:58;;;;;;;31.17;19.60;;;;;;;11.35;100.00;100937.44;5057245;28;20341;-70
2021/10/07 03:11:26;;;;;;;32.22;19.38;;;;;;;11.36;100.00;100933.81;5057210;28;20077;-70
2021/10/07 03:13:53;;;;;;;26.42;18.52;;;;;;;11.33;100.00;100940.19;5057174;28;20103;-70
2021/10/07 03:16:19;;;;;;;33.17;18.00;;;;;;;11.32;100.00;100937.63;5055351;28;20060;-70
2021/10/07 03:18:46;;;;;;;29.73;18.90;;;;;;;11.29;100.00;100941.31;5056861;28;20045;-70
2021/10/07 03:21:18;;;;;;;29.98;18.00;;;;;;;11.25;100.00;100945.06;5056949;28;20056;-69
2021/10/07 03:23:45;;;;;;;24.58;16.55;;;;;;;11.22;100.00;100946.09;5054536;28;20096;-69
2021/10/07 03:26:12;;;;;;;26.90;17.92;;;;;;;11.14;100.00;100946.50;5037165;28;20045;-69
2021/10/07 03:28:38;;;;;;;28.38;17.15;;;;;;;11.05;100.00;100946.09;5035948;28;20042;-70
2021/10/07 03:31:05;;;;;;;28.65;18.08;;;;;;;10.99;100.00;100939.25;5035769;28;20086;-71
2021/10/07 03:33:32;;;;;;;28.23;17.92;;;;;;;10.91;100.00;100957.47;5035904;28;20064;-71
2021/10/07 03:35:59;;;;;;;28.13;16.90;;;;;;;10.76;100.00;100951.06;5036665;28;20049;-70
2021/10/07 03:38:29;;;;;;;30.40;19.05;;;;;;;10.76;100.00;100965.28;5036706;28;20045;-70
2021/10/07 03:40:57;;;;;;;26.83;18.15;;;;;;;10.72;100.00;100959.25;5036653;28;20457;-70
2021/10/07 03:43:24;;;;;;;33.53;20.58;;;;;;;10.70;100.00;100963.81;5036650;28;20056;-69
2021/10/07 03:45:51;;;;;;;29.23;18.85;;;;;;;10.64;100.00;100956.09;5035769;28;20073;-70
2021/10/07 03:48:18;;;;;;;28.85;18.10;;;;;;;10.63;100.00;100961.50;5043205;28;20053;-68
2021/10/07 03:50:46;;;;;;;25.90;18.15;;;;;;;10.60;100.00;100970.50;5054964;28;20053;-70
2021/10/07 03:53:14;;;;;;;29.00;19.13;;;;;;;10.56;100.00;100966.25;5056273;28;20049;-70
2021/10/07 03:55:40;;;;;;;30.20;18.52;;;;;;;10.52;100.00;100972.69;5056200;28;20434;-69
2021/10/07 03:58:07;;;;;;;28.65;17.80;;;;;;;10.45;100.00;100978.31;5056237;28;20055;-69
2021/10/07 04:00:34;;;;;;;27.05;18.20;;;;;;;10.43;100.00;100977.53;5056172;28;20477;-69
2021/10/07 04:03:03;;;;;;;33.35;17.83;;;;;;;10.50;100.00;100991.44;5052433;28;20071;-69
2021/10/07 04:05:30;;;;;;;30.38;18.20;;;;;;;10.53;100.00;100987.75;5035959;28;20049;-68
2021/10/07 04:07:57;;;;;;;26.73;18.20;;;;;;;10.58;100.00;100991.09;5036244;28;20049;-69
2021/10/07 04:10:25;;;;;;;27.13;17.50;;;;;;;10.64;100.00;100993.47;5035257;28;20090;-70
2021/10/07 04:12:52;;;;;;;25.67;17.98;;;;;;;10.71;100.00;100999.34;5019164;28;20149;-69
2021/10/07 04:15:18;;;;;;;23.75;16.90;;;;;;;10.72;100.00;100996.63;5036327;28;20045;-69
2021/10/07 04:17:45;;;;;;;25.27;17.83;;;;;;;10.71;100.00;100999.34;5034901;28;20053;-69
2021/10/07 04:20:12;;;;;;;28.38;18.38;;;;;;;10.68;100.00;100995.03;5035405;28;20047;-68
2021/10/07 04:22:39;;;;;;;30.75;18.15;;;;;;;10.71;100.00;101002.03;5054710;28;20044;-69
2021/10/07 04:25:07;;;;;;;23.67;16.45;;;;;;;10.67;100.00;101003.97;5043878;28;20073;-69
2021/10/07 04:27:34;;;;;;;30.52;18.20;;;;;;;10.65;100.00;101008.53;5035163;28;20037;-69
2021/10/07 04:30:04;;;;;;;24.35;17.15;;;;;;;10.62;100.00;101007.81;5035899;28;20037;-70
2021/10/07 04:32:31;;;;;;;25.48;17.88;;;;;;;10.57;100.00;101000.88;5036247;28;20045;-69
2021/10/07 04:34:58;;;;;;;24.75;17.23;;;;;;;10.51;100.00;101009.19;5035857;28;20045;-69
2021/10/07 04:37:25;;;;;;;28.40;18.98;;;;;;;10.44;100.00;101010.41;5034616;28;20054;-69
2021/10/07 04:39:52;;;;;;;28.95;17.73;;;;;;;10.42;100.00;101012.25;5034488;28;20047;-70
2021/10/07 04:42:19;;;;;;;27.02;18.52;;;;;;;10.40;100.00;101014.13;5034577;28;20126;-70
2021/10/07 04:44:46;;;;;;;26.17;18.27;;;;;;;10.38;100.00;101013.31;5035469;28;20737;-69
2021/10/07 04:47:12;;;;;;;31.40;19.58;;;;;;;10.39;100.00;101012.38;5040950;28;20041;-70
2021/10/07 04:49:39;;;;;;;31.45;18.95;;;;;;;10.38;100.00;101011.53;5041150;28;20029;-70
2021/10/07 04:52:06;;;;;;;28.90;19.30;;;;;;;10.33;100.00;101000.19;5053960;28;20056;-69
2021/10/07 04:54:33;;;;;;;30.67;18.85;;;;;;;10.39;100.00;101005.25;5045380;28;20343;-70
2021/10/07 04:57:00;;;;;;;32.92;18.85;;;;;;;10.50;100.00;101011.94;5035424;28;20056;-70
2021/10/07 04:59:27;;;;;;;28.02;17.83;;;;;;;10.52;100.00;101010.06;5054293;28;20043;-70
2021/10/07 05:01:54;;;;;;;31.08;19.02;;;;;;;10.53;100.00;101014.44;5054972;28;20049;-70
2021/10/07 05:04:21;;;;;;;28.50;17.80;;;;;;;10.59;100.00;101019.50;5054134;28;20377;-69
2021/10/07 05:06:48;;;;;;;32.72;18.33;;;;;;;10.67;100.00;101020.00;5055007;28;20072;-70
2021/10/07 05:09:15;;;;;;;26.90;18.13;;;;;;;10.72;100.00;101025.09;5055154;28;20111;-70
2021/10/07 05:11:41;;;;;;;26.90;18.70;;;;;;;10.70;100.00;101029.66;5054990;28;20069;-70
2021/10/07 05:14:08;;;;;;;29.38;18.10;;;;;;;10.74;100.00;101028.59;5054943;28;20036;-69
2021/10/07 05:16:35;;;;;;;28.98;18.70;;;;;;;10.79;100.00;101028.38;5037276;28;20126;-70
2021/10/07 05:19:02;;;;;;;24.88;16.73;;;;;;;10.79;100.00;101042.56;5054830;28;20044;-70
2021/10/07 05:21:28;;;;;;;25.63;16.92;;;;;;;10.83;100.00;101029.94;5054850;28;20682;-69
2021/10/07 05:23:56;;;;;;;23.23;16.08;;;;;;;10.91;100.00;101043.81;5052079;28;20120;-69
2021/10/07 05:26:23;;;;;;;28.75;17.30;;;;;;;10.93;100.00;101044.59;5033896;28;20118;-70
2021/10/07 05:28:50;;;;;;;29.83;17.73;;;;;;;10.94;100.00;101049.00;5034769;28;20045;-69
2021/10/07 05:31:18;;;;;;;27.95;19.08;;;;;;;11.06;100.00;101057.34;5033864;28;20096;-69
2021/10/07 05:33:45;;;;;;;27.23;18.10;;;;;;;11.06;100.00;101062.69;5034787;28;20087;-69
2021/10/07 05:36:12;;;;;;;32.30;18.92;;;;;;;11.12;100.00;101062.41;5034915;28;20045;-69
2021/10/07 05:38:38;;;;;;;31.30;19.10;;;;;;;11.12;100.00;101060.56;5034645;28;20435;-70
2021/10/07 05:41:07;;;;;;;27.95;18.67;;;;;;;11.13;100.00;101064.13;5020111;28;20447;-69
2021/10/07 05:43:34;;;;;;;28.77;18.42;;;;;;;10.99;100.00;101049.63;5038747;28;20038;-70
2021/10/07 05:46:01;;;;;;;24.70;18.05;;;;;;;11.08;100.00;101066.16;5038846;28;20443;-70
2021/10/07 05:48:28;;;;;;;32.88;20.27;;;;;;;11.15;100.00;101075.59;5038900;28;20053;-70
2021/10/07 05:50:57;;;;;;;31.33;20.58;;;;;;;11.13;100.00;101069.47;5046713;28;20064;-74
2021/10/07 05:53:25;;;;;;;31.13;21.13;;;;;;;11.16;100.00;101069.31;5058114;28;20052;-74
2021/10/07 05:55:51;;;;;;;32.20;19.30;;;;;;;11.20;100.00;101083.38;5056687;28;20045;-69
2021/10/07 05:58:18;;;;;;;33.72;20.08;;;;;;;11.20;100.00;101081.59;5058211;28;20052;-69
2021/10/07 06:00:45;;;;;;;28.02;20.20;;;;;;;11.21;100.00;101077.09;5059000;28;20041;-70
2021/10/07 06:03:12;;;;;;;30.17;19.27;;;;;;;11.20;100.00;101078.03;5050608;28;20373;-74
2021/10/07 06:05:40;;;;;;;28.38;19.92;;;;;;;11.21;100.00;101079.75;5056744;28;20044;-72
2021/10/07 06:08:08;;;;;;;30.88;19.75;;;;;;;11.26;100.00;101091.97;5054439;28;20309;-71
2021/10/07 06:10:35;;;;;;;33.97;20.42;;;;;;;11.29;100.00;101088.28;5053607;28;20033;-73
2021/10/07 06:13:02;;;;;;;27.45;19.83;;;;;;;11.28;100.00;101087.41;5055503;28;20448;-73
2021/10/07 06:15:30;;;;;;;30.80;19.35;;;;;;;11.33;100.00;101091.69;5055272;28;20044;-73
2021/10/07 06:17:57;;;;;;;29.90;19.15;;;;;;;11.37;100.00;101093.25;5057003;28;20045;-72
2021/10/07 06:22:57;;;;;;;33.83;19.67;;;;;;;11.45;100.00;101096.44;5056543;28;20072;-72
2021/10/07 06:25:24;;;;;;;34.17;19.52;;;;;;;11.47;100.00;101099.00;5055819;28;20052;-70
2021/10/07 06:27:52;;;;;;;32.40;21.52;;;;;;;11.48;100.00;101106.06;5055998;28;20041;-73
2021/10/07 06:30:19;;;;;;;38.03;20.92;;;;;;;11.49;100.00;101097.97;5056098;28;20385;-75
2021/10/07 06:32:49;;;;;;;36.53;20.92;;;;;;;11.55;100.00;101105.69;5055092;28;20045;-70
2021/10/07 06:35:17;;;;;;;35.58;20.88;;;;;;;11.60;100.00;101107.28;5038229;28;20450;-68
2021/10/07 06:37:44;;;;;;;36.60;20.70;;;;;;;11.62;100.00;101113.41;5056296;28;20056;-68
2021/10/07 06:40:11;;;;;;;35.80;21.08;;;;;;;11.65;100.00;101116.81;5055835;28;20045;-70
2021/10/07 06:42:38;;;;;;;35.92;21.02;;;;;;;11.69;100.00;101125.53;5057057;28;20050;-70
2021/10/07 06:45:06;;;;;;;34.53;21.60;;;;;;;11.70;100.00;101126.41;5056902;28;20056;-70
2021/10/07 06:47:34;;;;;;;32.70;20.23;;;;;;;11.70;100.00;101126.41;5049847;28;20056;-73
2021/10/07 06:50:03;;;;;;;35.15;19.95;;;;;;;11.73;100.00;101123.56;5051718;28;20426;-70
2021/10/07 06:52:30;;;;;;;42.25;20.90;;;;;;;11.77;100.00;101138.53;5048744;28;20041;-69
2021/10/07 06:54:57;;;;;;;33.60;19.80;;;;;;;11.79;100.00;101126.81;5052264;28;20037;-69
2021/10/07 06:57:24;;;;;;;38.55;20.83;;;;;;;11.86;100.00;101143.41;5054811;28;20438;-69
2021/10/07 06:59:51;;;;;;;33.75;20.25;;;;;;;11.88;100.00;101140.66;5019836;28;20037;-71
2021/10/07 07:02:17;;;;;;;34.08;20.35;;;;;;;11.92;100.00;101140.41;5053354;28;20063;-69
2021/10/07 07:04:44;;;;;;;39.60;21.15;;;;;;;11.93;100.00;101143.97;5052205;28;20102;-68
2021/10/07 07:07:11;;;;;;;36.80;20.10;;;;;;;11.91;100.00;101152.06;5054766;28;20044;-70
2021/10/07 07:09:38;;;;;;;33.33;19.27;;;;;;;11.91;100.00;101148.50;5053214;28;20038;-71
2021/10/07 07:12:20;;;;;;;35.63;20.80;;;;;;;11.88;100.00;101146.00;5054354;28;20361;-67
2021/10/07 07:14:47;;;;;;;35.13;20.77;;;;;;;11.87;100.00;101141.59;5053171;28;20057;-69
2021/10/07 07:17:15;;;;;;;33.72;20.02;;;;;;;11.84;100.00;101147.09;5053556;28;20438;-68
2021/10/07 07:19:44;;;;;;;40.80;21.92;;;;;;;11.81;100.00;101150.78;5054756;28;20135;-69
2021/10/07 07:22:15;;;;;;;44.58;22.48;;;;;;;11.77;100.00;101159.94;5053098;28;20048;-69
2021/10/07 07:24:42;;;;;;;38.50;20.58;;;;;;;11.76;100.00;101153.69;5053213;28;20037;-72
2021/10/07 07:27:11;;;;;;;37.60;21.75;;;;;;;11.76;100.00;101155.53;5053903;28;20029;-71
2021/10/07 07:29:38;;;;;;;40.10;21.45;;;;;;;11.73;100.00;101159.22;5053461;28;20036;-73
2021/10/07 07:32:05;;;;;;;49.88;22.65;;;;;;;11.73;100.00;101164.56;5051059;28;20116;-74
2021/10/07 07:34:32;;;;;;;47.20;21.90;;;;;;;11.71;100.00;101162.91;5050308;28;20509;-74
2021/10/07 07:36:59;;;;;;;41.72;23.00;;;;;;;11.72;100.00;101161.97;5052100;28;20069;-75
2021/10/07 07:39:26;;;;;;;41.78;22.75;;;;;;;11.85;100.00;101168.44;5018386;28;20431;-74
2021/10/07 07:41:53;;;;;;;41.97;21.27;;;;;;;11.84;100.00;101164.03;5053505;28;20437;-75
2021/10/07 07:44:20;;;;;;;38.42;21.77;;;;;;;11.91;100.00;101177.94;5053662;28;20082;-73
2021/10/07 07:46:47;;;;;;;47.13;21.60;;;;;;;11.89;100.00;101172.69;5053111;28;20041;-75
2021/10/07 07:49:14;;;;;;;43.28;22.10;;;;;;;11.91;100.00;101169.91;5049417;28;20053;-75
2021/10/07 07:51:40;;;;;;;43.95;21.70;;;;;;;12.04;100.00;101187.13;5050407;28;20065;-72
2021/10/07 07:54:07;;;;;;;43.60;21.52;;;;;;;12.11;100.00;101181.44;5051112;28;20096;-74
2021/10/07 07:56:34;;;;;;;50.25;23.38;;;;;;;12.17;100.00;101183.81;5055109;28;20048;-74
2021/10/07 07:59:01;;;;;;;45.05;20.55;;;;;;;12.13;100.00;101176.88;5052905;28;20124;-81
2021/10/07 08:01:30;;;;;;;40.40;21.25;;;;;;;12.32;100.00;101192.88;5055369;28;20047;-76
2021/10/07 08:03:57;;;;;;;47.25;21.27;;;;;;;12.44;100.00;101186.88;5053715;28;20049;-76
2021/10/07 08:06:24;;;;;;;48.85;23.23;;;;;;;12.47;100.00;101188.50;5053526;28;20045;-76
2021/10/07 08:08:51;;;;;;;50.42;22.95;;;;;;;12.62;100.00;101189.50;5054770;28;20106;-72
2021/10/07 08:11:18;;;;;;;47.30;20.85;;;;;;;12.76;100.00;101186.13;5051425;28;20086;-75
2021/10/07 08:13:44;;;;;;;43.05;21.67;;;;;;;12.90;100.00;101199.63;5035307;28;20426;-72
2021/10/07 08:16:11;;;;;;;47.75;23.05;;;;;;;13.01;100.00;101201.72;5053122;28;20087;-73
2021/10/07 08:18:43;;;;;;;35.90;19.50;;;;;;;13.14;100.00;101204.56;5055265;28;20075;-74
2021/10/07 08:21:09;;;;;;;35.53;17.00;;;;;;;13.17;100.00;101206.22;5052728;28;20090;-75
2021/10/07 08:23:37;;;;;;;36.35;17.80;;;;;;;13.11;100.00;101191.34;5053374;28;20040;-75
2021/10/07 08:26:04;;;;;;;44.00;19.60;;;;;;;13.03;100.00;101198.97;5053852;28;20045;-76
2021/10/07 08:28:31;;;;;;;36.88;17.83;;;;;;;13.09;100.00;101206.66;5054537;28;20103;-75
2021/10/07 08:30:59;;;;;;;36.65;16.77;;;;;;;13.16;100.00;101205.38;5052176;28;20063;-73
2021/10/07 08:33:26;;;;;;;36.80;17.98;;;;;;;13.04;100.00;101198.84;5052370;28;20486;-75
2021/10/07 08:35:54;;;;;;;37.83;18.33;;;;;;;13.05;100.00;101202.41;5053140;28;20041;-72
2021/10/07 08:38:21;;;;;;;41.55;18.95;;;;;;;12.98;100.00;101195.66;5052264;28;20044;-73
2021/10/07 08:40:48;;;;;;;33.83;18.48;;;;;;;13.00;100.00;101205.34;5053177;28;20043;-74
2021/10/07 08:43:15;;;;;;;34.90;19.25;;;;;;;13.00;100.00;101205.34;5054405;28;20068;-76
2021/10/07 08:45:42;;;;;;;37.72;19.42;;;;;;;12.95;100.00;101202.06;5051119;28;20373;-78
2021/10/07 08:48:09;;;;;;;33.03;18.48;;;;;;;12.87;100.00;101199.78;5048617;28;20053;-77
2021/10/07 08:50:36;;;;;;;33.40;17.85;;;;;;;12.87;100.00;101205.13;5046758;28;20045;-75
2021/10/07 08:53:06;;;;;;;42.00;18.60;;;;;;;12.83;100.00;101205.38;5045764;28;20052;-75
2021/10/07 08:55:33;;;;;;;38.38;19.73;;;;;;;12.84;100.00;101210.66;5052979;28;20389;-75
2021/10/07 08:57:59;;;;;;;32.88;18.95;;;;;;;12.89;100.00;101208.63;5051576;28;20083;-77
2021/10/07 09:00:27;;;;;;;40.45;20.35;;;;;;;13.04;100.00;101195.31;5050692;28;20033;-75
2021/10/07 09:02:56;;;;;;;32.97;17.30;;;;;;;13.41;100.00;101214.72;5050857;28;20299;-76
2021/10/07 09:05:25;;;;;;;31.35;16.83;;;;;;;13.75;100.00;101211.09;5051125;28;20323;-74
2021/10/07 09:08:14;;;;;;;32.97;16.75;;;;;;;13.90;100.00;101215.56;5048642;28;20047;-74
2021/10/07 09:10:50;;;;;;;36.63;17.17;;;;;;;14.03;100.00;101209.50;5049346;28;20037;-74
2021/10/07 09:13:22;;;;;;;32.47;15.85;;;;;;;14.23;97.59;101217.22;5046158;28;20443;-76
2021/10/07 09:15:56;;;;;;;27.00;14.48;;;;;;;14.35;95.80;101212.09;5049228;28;20072;-74
2021/10/07 09:18:25;;;;;;;29.63;14.13;;;;;;;14.25;98.23;101215.34;5049182;28;20037;-71
2021/10/07 09:20:55;;;;;;;24.45;14.13;;;;;;;14.25;99.33;101222.50;5048874;28;20071;-70
2021/10/07 09:23:33;;;;;;;32.50;14.15;;;;;;;14.21;97.93;101212.91;5048354;28;20045;-74
2021/10/07 09:26:11;;;;;;;28.20;15.77;;;;;;;14.40;95.43;101223.41;5048571;28;20466;-76
2021/10/07 09:28:59;;;;;;;28.00;14.02;;;;;;;14.42;97.53;101221.50;5048689;28;20068;-77
2021/10/07 09:31:28;;;;;;;23.75;12.43;;;;;;;14.50;96.04;101221.88;5050565;28;20342;-70
2021/10/07 09:34:06;;;;;;;23.80;12.88;;;;;;;14.41;95.95;101219.78;5045068;28;20103;-70
2021/10/07 09:36:34;;;;;;;25.13;12.30;;;;;;;14.41;96.62;101219.78;5049023;28;20063;-72
2021/10/07 09:39:03;;;;;;;23.55;12.40;;;;;;;14.34;96.12;101218.41;5048532;28;20124;-71
2021/10/07 09:41:32;;;;;;;25.50;11.93;;;;;;;14.26;96.34;101233.16;5048413;28;20057;-73
2021/10/07 09:44:04;;;;;;;21.33;12.13;;;;;;;14.18;95.06;101230.09;5045158;28;20099;-71
2021/10/07 09:46:51;;;;;;;21.05;12.10;;;;;;;14.09;94.66;101225.22;5042788;28;20049;-71
2021/10/07 09:49:35;;;;;;;20.98;11.82;;;;;;;13.91;96.19;101233.44;5050646;28;20091;-74
2021/10/07 09:52:02;;;;;;;22.85;11.70;;;;;;;13.75;98.11;101232.56;5050886;28;20056;-72
2021/10/07 09:54:35;;;;;;;25.80;13.13;;;;;;;13.64;99.41;101225.13;5052493;28;20049;-73
2021/10/07 09:57:04;;;;;;;26.00;14.65;;;;;;;13.68;98.69;101227.53;5050540;28;20049;-72
2021/10/07 09:59:32;;;;;;;25.05;14.02;;;;;;;13.51;100.00;101233.03;5035690;28;20083;-74
2021/10/07 10:02:00;;;;;;;31.63;15.52;;;;;;;13.39;100.00;101227.34;5052426;28;20037;-75
2021/10/07 10:04:30;;;;;;;35.60;17.15;;;;;;;13.27;100.00;101225.34;5052784;28;20045;-71
2021/10/07 10:06:58;;;;;;;31.67;17.23;;;;;;;13.27;100.00;101234.28;5052757;28;20049;-74
2021/10/07 10:09:27;;;;;;;27.83;16.00;;;;;;;13.27;100.00;101231.59;5052690;28;20090;-72
2021/10/07 10:11:55;;;;;;;26.65;14.20;;;;;;;13.31;100.00;101221.56;5051853;28;20107;-71
2021/10/07 10:14:23;;;;;;;26.92;13.85;;;;;;;13.30;100.00;101228.72;5049056;28;20041;-72
2021/10/07 10:16:53;;;;;;;28.02;12.18;;;;;;;13.27;100.00;101228.91;5049874;28;20104;-72
2021/10/07 10:19:21;;;;;;;24.40;12.25;;;;;;;13.57;100.00;101238.03;5050600;28;20056;-72
2021/10/07 10:21:48;;;;;;;24.50;11.35;;;;;;;13.93;100.00;101234.19;5052044;28;20037;-70
2021/10/07 10:24:16;;;;;;;22.85;8.80;;;;;;;14.20;95.72;101238.03;5051389;28;20052;-72
2021/10/07 10:27:01;;;;;;;18.17;8.98;;;;;;;14.33;94.97;101235.50;5054221;28;20098;-71
2021/10/07 10:29:33;;;;;;;17.38;7.93;;;;;;;14.24;93.90;101234.22;5056484;28;20036;-73
2021/10/07 10:32:03;;;;;;;17.55;7.50;;;;;;;14.14;94.13;101239.25;5053695;28;20114;-68
2021/10/07 10:34:40;;;;;;;18.02;7.63;;;;;;;14.20;95.29;101249.63;5055512;28;20045;-69
2021/10/07 10:37:09;;;;;;;14.70;7.82;;;;;;;14.29;93.27;101244.66;5055306;28;20151;-72
2021/10/07 10:39:39;;;;;;;14.48;6.80;;;;;;;14.49;93.67;101248.88;5055206;28;20300;-72
2021/10/07 10:42:07;;;;;;;13.23;6.47;;;;;;;14.76;91.02;101251.72;5054107;28;20099;-73
2021/10/07 10:44:46;;;;;;;14.98;6.72;;;;;;;14.79;86.63;101242.59;5052522;28;20370;-76
2021/10/07 10:47:12;;;;;;;11.57;6.05;;;;;;;15.01;87.60;101244.81;5050011;28;20143;-70
2021/10/07 10:49:51;;;;;;;11.43;5.38;;;;;;;15.15;87.21;101235.88;5053359;28;20118;-71
2021/10/07 10:52:20;;;;;;;10.88;4.90;;;;;;;15.29;84.52;101237.69;5053323;28;20333;-72
2021/10/07 10:54:50;;;;;;;13.30;5.38;;;;;;;15.31;81.81;101246.53;5055165;28;20385;-68
2021/10/07 10:57:50;;;;;;;10.53;4.63;;;;;;;15.45;83.32;101244.78;5053330;28;20056;-73
2021/10/07 11:00:37;;;;;;;12.48;4.63;;;;;;;15.53;79.57;101244.28;5051845;28;20374;-74
2021/10/07 11:03:17;;;;;;;10.18;4.32;;;;;;;15.80;82.12;101246.16;5052844;28;20095;-72
2021/10/07 11:05:54;;;;;;;12.95;4.55;;;;;;;15.92;81.80;101245.38;5054210;28;20045;-79
2021/10/07 11:08:23;;;;;;;12.57;4.88;;;;;;;16.07;80.34;101254.25;5053722;28;20041;-77
2021/10/07 11:11:08;;;;;;;12.80;4.97;;;;;;;16.11;75.63;101252.19;5055273;28;20037;-71
2021/10/07 11:13:45;;;;;;;10.68;4.90;;;;;;;16.34;76.57;101255.19;5053767;28;20045;-72
2021/10/07 11:16:16;;;;;;;9.18;4.47;;;;;;;16.67;75.06;101257.38;5051734;28;20041;-74